createdAt,value
2018-09-03T00:01:15.958Z,9.43
2018-09-03T00:03:44.804Z,9.10
2018-09-03T00:06:13.963Z,8.97
2018-09-03T00:08:42.847Z,9.57
2018-09-03T00:11:11.650Z,9.10
2018-09-03T00:13:40.545Z,8.83
2018-09-03T00:16:09.368Z,9.47
2018-09-03T00:18:38.198Z,9.00
2018-09-03T00:21:07.015Z,9.80
2018-09-03T00:23:35.894Z,10.80
2018-09-03T00:26:04.790Z,9.27
2018-09-03T00:28:33.658Z,9.80
2018-09-03T00:31:07.995Z,9.83
2018-09-03T00:33:42.192Z,8.50
2018-09-03T00:37:15.186Z,9.17
2018-09-03T00:39:49.442Z,9.70
2018-09-03T00:42:23.641Z,8.60
2018-09-03T00:44:57.815Z,9.90
2018-09-03T00:47:26.611Z,9.50
2018-09-03T00:49:55.463Z,8.80
2018-09-03T00:52:24.296Z,9.37
2018-09-03T00:54:53.140Z,8.70
2018-09-03T00:57:21.938Z,8.90
2018-09-03T00:59:50.842Z,8.93
2018-09-03T01:02:19.716Z,9.50
2018-09-03T01:04:48.528Z,9.10
2018-09-03T01:07:17.413Z,9.60
2018-09-03T01:09:46.289Z,9.80
2018-09-03T01:12:15.198Z,10.27
2018-09-03T01:14:44.060Z,9.43
2018-09-03T01:17:12.968Z,9.27
2018-09-03T01:19:41.804Z,10.63
2018-09-03T01:22:10.639Z,9.00
2018-09-03T01:24:39.465Z,9.87
2018-09-03T01:27:08.271Z,9.50
2018-09-03T01:29:37.188Z,9.57
2018-09-03T01:32:06.020Z,9.00
2018-09-03T01:34:34.877Z,8.90
2018-09-03T01:37:03.749Z,9.50
2018-09-03T01:39:32.599Z,10.47
2018-09-03T01:42:01.442Z,9.90
2018-09-03T01:44:30.247Z,9.77
2018-09-03T01:46:59.118Z,9.77
2018-09-03T01:49:27.959Z,10.47
2018-09-03T01:51:56.808Z,9.73
2018-09-03T01:54:25.660Z,9.93
2018-09-03T01:56:54.634Z,8.83
2018-09-03T01:59:23.445Z,10.57
2018-09-03T02:01:52.324Z,10.97
2018-09-03T02:04:21.203Z,9.67
2018-09-03T02:06:50.040Z,10.40
2018-09-03T02:09:18.895Z,9.43
2018-09-03T02:11:47.707Z,10.10
2018-09-03T02:14:16.535Z,9.23
2018-09-03T02:16:45.398Z,9.33
2018-09-03T02:19:14.307Z,9.30
2018-09-03T02:21:43.164Z,9.33
2018-09-03T02:24:12.012Z,10.70
2018-09-03T02:26:40.900Z,9.90
2018-09-03T02:29:09.726Z,10.07
2018-09-03T02:31:38.605Z,9.63
2018-09-03T02:34:07.444Z,9.30
2018-09-03T02:36:36.296Z,8.70
2018-09-03T02:39:07.029Z,9.83
2018-09-03T02:41:35.863Z,9.90
2018-09-03T02:44:04.735Z,10.17
2018-09-03T02:46:33.648Z,10.57
2018-09-03T02:49:02.474Z,9.50
2018-09-03T02:51:31.299Z,9.67
2018-09-03T02:54:00.164Z,9.53
2018-09-03T02:56:28.977Z,10.20
2018-09-03T02:58:57.840Z,9.47
2018-09-03T03:01:26.667Z,10.60
2018-09-03T03:03:55.537Z,10.77
2018-09-03T03:06:24.385Z,10.50
2018-09-03T03:08:53.236Z,10.17
2018-09-03T03:11:22.062Z,10.53
2018-09-03T03:13:50.879Z,11.07
2018-09-03T03:16:19.713Z,9.93
2018-09-03T03:18:48.583Z,10.40
2018-09-03T03:21:17.411Z,10.17
2018-09-03T03:23:46.260Z,10.40
2018-09-03T03:26:15.104Z,10.00
2018-09-03T03:28:44.010Z,9.97
2018-09-03T03:31:12.868Z,10.30
2018-09-03T03:33:41.728Z,10.03
2018-09-03T03:36:10.523Z,11.10
2018-09-03T03:38:39.433Z,11.17
2018-09-03T03:41:08.302Z,10.90
2018-09-03T03:43:37.102Z,9.50
2018-09-03T03:46:05.977Z,10.00
2018-09-03T03:48:34.874Z,10.93
2018-09-03T03:51:03.688Z,9.97
2018-09-03T03:53:32.534Z,10.53
2018-09-03T03:56:01.373Z,9.73
2018-09-03T03:58:30.286Z,10.47
2018-09-03T04:00:59.120Z,10.10
2018-09-03T04:03:27.992Z,10.47
2018-09-03T04:05:56.783Z,10.20
2018-09-03T04:08:25.612Z,10.13
2018-09-03T04:10:54.490Z,10.80
2018-09-03T04:13:23.323Z,10.57
2018-09-03T04:15:52.179Z,9.93
2018-09-03T04:18:21.024Z,9.87
2018-09-03T04:20:49.868Z,10.73
2018-09-03T04:23:18.999Z,10.23
2018-09-03T04:25:47.670Z,10.80
2018-09-03T04:28:16.520Z,9.67
2018-09-03T04:30:45.375Z,11.00
2018-09-03T04:33:14.220Z,10.33
2018-09-03T04:35:43.056Z,9.90
2018-09-03T04:38:11.927Z,10.10
2018-09-03T04:40:40.794Z,10.10
2018-09-03T04:43:09.648Z,10.40
2018-09-03T04:45:38.512Z,10.30
2018-09-03T04:48:07.451Z,10.50
2018-09-03T04:50:36.253Z,10.10
2018-09-03T04:53:05.228Z,10.27
2018-09-03T04:55:34.082Z,9.67
2018-09-03T04:58:02.933Z,9.77
2018-09-03T05:00:31.808Z,9.00
2018-09-03T05:03:00.676Z,9.90
2018-09-03T05:05:29.500Z,9.57
2018-09-03T05:07:58.298Z,9.13
2018-09-03T05:10:27.794Z,9.87
2018-09-03T05:12:56.915Z,10.00
2018-09-03T05:15:25.731Z,10.40
2018-09-03T05:17:54.564Z,10.00
2018-09-03T05:20:23.384Z,9.30
2018-09-03T05:22:52.221Z,9.20
2018-09-03T05:25:21.081Z,10.47
2018-09-03T05:27:49.920Z,9.90
2018-09-03T05:30:18.783Z,9.70
2018-09-03T05:32:47.631Z,8.70
2018-09-03T05:35:16.470Z,8.97
2018-09-03T05:37:45.246Z,10.07
2018-09-03T05:40:14.053Z,9.80
2018-09-03T05:42:42.909Z,9.10
2018-09-03T05:45:11.698Z,8.63
2018-09-03T05:47:40.527Z,9.57
2018-09-03T05:50:09.407Z,10.20
2018-09-03T05:52:38.293Z,10.33
2018-09-03T05:55:07.121Z,9.63
2018-09-03T05:57:35.937Z,9.67
2018-09-03T06:00:05.268Z,8.60
2018-09-03T06:02:34.119Z,10.20
2018-09-03T06:05:02.988Z,8.97
2018-09-03T06:07:31.840Z,10.70
2018-09-03T06:10:00.667Z,9.50
2018-09-03T06:12:29.557Z,10.50
2018-09-03T06:14:58.399Z,9.17
2018-09-03T06:17:27.277Z,11.10
2018-09-03T06:19:56.144Z,9.90
2018-09-03T06:22:24.943Z,9.50
2018-09-03T06:24:53.875Z,8.80
2018-09-03T06:27:22.733Z,9.23
2018-09-03T06:29:51.597Z,9.17
2018-09-03T06:32:20.431Z,9.10
2018-09-03T06:34:49.242Z,9.53
2018-09-03T06:37:18.111Z,10.00
2018-09-03T06:39:46.964Z,9.33
2018-09-03T06:42:15.806Z,10.07
2018-09-03T06:44:44.652Z,9.33
2018-09-03T06:47:13.687Z,8.80
2018-09-03T06:49:42.519Z,10.70
2018-09-03T06:52:11.400Z,8.93
2018-09-03T06:54:40.301Z,9.43
2018-09-03T06:57:09.168Z,9.73
2018-09-03T06:59:38.067Z,9.93
2018-09-03T07:02:07.934Z,9.97
2018-09-03T07:04:37.090Z,9.83
2018-09-03T07:07:06.702Z,9.70
2018-09-03T07:09:35.566Z,8.87
2018-09-03T07:12:04.646Z,9.63
2018-09-03T07:14:33.475Z,9.10
2018-09-03T07:17:02.363Z,8.97
2018-09-03T07:19:31.251Z,10.10
2018-09-03T07:22:00.161Z,9.87
2018-09-03T07:24:29.000Z,9.20
2018-09-03T07:26:57.806Z,9.87
2018-09-03T07:29:26.615Z,8.97
2018-09-03T07:31:55.476Z,8.70
2018-09-03T07:34:24.328Z,9.93
2018-09-03T07:36:53.252Z,8.67
2018-09-03T07:39:22.096Z,9.87
2018-09-03T07:41:50.931Z,9.00
2018-09-03T07:44:19.747Z,9.13
2018-09-03T07:46:48.629Z,10.13
2018-09-03T07:49:17.581Z,8.07
2018-09-03T07:51:46.493Z,9.43
2018-09-03T07:54:15.366Z,10.03
2018-09-03T07:56:44.232Z,9.60
2018-09-03T07:59:13.112Z,10.30
2018-09-03T08:01:42.020Z,9.40
2018-09-03T08:04:10.955Z,8.93
2018-09-03T08:06:39.782Z,9.73
2018-09-03T08:09:10.415Z,8.83
2018-09-03T08:11:39.378Z,8.93
2018-09-03T08:14:08.087Z,9.83
2018-09-03T08:16:36.878Z,9.73
2018-09-03T08:22:03.482Z,9.67
2018-09-03T08:24:32.336Z,9.40
2018-09-03T08:27:01.247Z,8.50
2018-09-03T08:29:30.114Z,8.53
2018-09-03T08:31:58.963Z,8.67
2018-09-03T08:34:27.762Z,8.17
2018-09-03T08:36:56.596Z,7.87
2018-09-03T08:39:25.407Z,9.93
2018-09-03T08:41:54.257Z,9.60
2018-09-03T08:44:23.095Z,9.40
2018-09-03T08:46:51.964Z,9.80
2018-09-03T08:49:20.818Z,9.00
2018-09-03T08:51:49.706Z,9.63
2018-09-03T08:54:18.596Z,9.33
2018-09-03T08:56:47.487Z,9.83
2018-09-03T08:59:16.262Z,9.90
2018-09-03T09:01:45.095Z,10.17
2018-09-03T09:04:13.916Z,9.90
2018-09-03T09:06:42.781Z,9.67
2018-09-03T09:09:11.650Z,9.93
2018-09-03T09:11:40.502Z,9.50
2018-09-03T09:14:09.332Z,9.90
2018-09-03T09:16:38.176Z,9.87
2018-09-03T09:19:07.057Z,9.40
2018-09-03T09:21:35.929Z,10.10
2018-09-03T09:24:04.848Z,8.73
2018-09-03T09:26:33.714Z,9.57
2018-09-03T09:29:02.602Z,9.37
2018-09-03T09:31:31.419Z,9.90
2018-09-03T09:34:00.231Z,10.67
2018-09-03T09:36:29.023Z,9.00
2018-09-03T09:38:57.932Z,9.57
2018-09-03T09:41:26.793Z,9.53
2018-09-03T09:43:55.605Z,9.20
2018-09-03T09:46:24.432Z,9.17
2018-09-03T09:48:53.280Z,10.53
2018-09-03T09:51:22.131Z,10.20
2018-09-03T09:53:50.956Z,8.90
2018-09-03T09:56:19.827Z,9.43
2018-09-03T09:58:48.615Z,10.00
2018-09-03T10:01:22.978Z,10.57
2018-09-03T10:03:51.790Z,10.67
2018-09-03T10:06:20.685Z,9.40
2018-09-03T10:08:49.536Z,9.70
2018-09-03T10:11:18.363Z,9.37
2018-09-03T10:13:47.232Z,10.47
2018-09-03T10:16:16.143Z,10.33
2018-09-03T10:18:44.936Z,10.30
2018-09-03T10:21:13.744Z,8.63
2018-09-03T10:23:42.580Z,10.67
2018-09-03T10:26:11.537Z,8.93
2018-09-03T10:28:40.380Z,9.80
2018-09-03T10:31:09.190Z,10.03
2018-09-03T10:33:38.219Z,9.50
2018-09-03T10:36:07.068Z,8.70
2018-09-03T10:38:36.049Z,8.87
2018-09-03T10:41:04.920Z,9.90
2018-09-03T10:43:33.808Z,8.80
2018-09-03T10:46:02.668Z,9.93
2018-09-03T10:48:31.461Z,9.10
2018-09-03T10:51:00.314Z,9.67
2018-09-03T10:53:29.176Z,9.33
2018-09-03T10:55:58.050Z,8.77
2018-09-03T10:58:26.901Z,9.40
2018-09-03T11:00:55.719Z,9.47
2018-09-03T11:03:24.568Z,9.17
2018-09-03T11:05:53.418Z,10.50
2018-09-03T11:08:22.289Z,9.23
2018-09-03T11:10:50.982Z,9.43
2018-09-03T11:13:19.847Z,9.43
2018-09-03T11:15:48.675Z,8.27
2018-09-03T11:18:17.561Z,9.47
2018-09-03T11:20:46.442Z,8.53
2018-09-03T11:23:15.276Z,9.80
2018-09-03T11:25:44.071Z,8.70
2018-09-03T11:28:12.917Z,9.60
2018-09-03T11:30:41.820Z,9.00
2018-09-03T11:33:10.742Z,9.00
2018-09-03T11:35:39.563Z,9.17
2018-09-03T11:38:08.408Z,8.63
2018-09-03T11:40:37.269Z,8.70
2018-09-03T11:43:06.303Z,9.10
2018-09-03T11:45:35.097Z,7.83
2018-09-03T11:48:03.924Z,8.10
2018-09-03T11:50:32.751Z,8.80
2018-09-03T11:53:01.575Z,8.30
2018-09-03T11:55:30.469Z,7.60
2018-09-03T11:57:59.277Z,8.90
2018-09-03T12:00:29.735Z,7.83
2018-09-03T12:02:59.111Z,7.17
2018-09-03T12:05:28.829Z,7.93
2018-09-03T12:07:57.683Z,7.80
2018-09-03T12:10:26.536Z,6.80
2018-09-03T12:12:55.437Z,6.43
2018-09-03T12:15:31.558Z,7.70
2018-09-03T12:18:00.433Z,7.10
2018-09-03T12:20:29.246Z,6.60
2018-09-03T12:22:58.106Z,6.93
2018-09-03T12:25:26.927Z,7.03
2018-09-03T12:27:58.364Z,6.80
2018-09-03T12:30:27.382Z,6.93
2018-09-03T12:32:56.253Z,6.30
2018-09-03T12:35:25.172Z,7.03
2018-09-03T12:37:54.031Z,6.53
2018-09-03T12:40:22.928Z,6.00
2018-09-03T12:42:51.836Z,6.40
2018-09-03T12:45:24.795Z,7.10
2018-09-03T12:47:53.653Z,6.97
2018-09-03T12:50:22.680Z,7.10
2018-09-03T12:52:51.491Z,6.77
2018-09-03T12:55:20.361Z,6.20
2018-09-03T12:57:49.219Z,6.33
2018-09-03T13:00:21.607Z,6.23
2018-09-03T13:02:50.896Z,6.20
2018-09-03T13:05:20.403Z,6.10
2018-09-03T13:07:49.661Z,6.03
2018-09-03T13:10:18.490Z,5.87
2018-09-03T13:12:47.462Z,6.37
2018-09-03T13:15:16.419Z,6.17
2018-09-03T13:17:45.243Z,6.42
2018-09-03T13:20:14.333Z,5.87
2018-09-03T13:22:44.667Z,6.37
2018-09-03T13:25:13.505Z,6.03
2018-09-03T13:27:43.882Z,6.20
2018-09-03T13:30:12.711Z,6.00
2018-09-03T13:32:41.606Z,5.87
2018-09-03T13:35:11.453Z,7.03
2018-09-03T13:37:40.316Z,5.83
2018-09-03T13:40:09.252Z,6.12
2018-09-03T13:42:39.789Z,6.03
2018-09-03T13:45:08.789Z,6.03
2018-09-03T13:47:37.628Z,5.92
2018-09-03T13:50:06.875Z,6.45
2018-09-03T13:52:35.820Z,5.58
2018-09-03T13:55:04.955Z,6.05
2018-09-03T13:57:34.524Z,6.03
2018-09-03T14:00:03.421Z,6.55
2018-09-03T14:02:32.543Z,6.85
2018-09-03T14:05:01.417Z,6.15
2018-09-03T14:07:30.268Z,7.15
2018-09-03T14:09:59.228Z,7.78
2018-09-03T14:12:28.007Z,7.00
2018-09-03T14:17:53.974Z,6.65
2018-09-03T14:23:19.711Z,6.85
2018-09-03T14:25:48.645Z,5.58
2018-09-03T14:28:17.598Z,7.40
2018-09-03T14:30:46.481Z,6.85
2018-09-03T14:33:15.375Z,7.00
2018-09-03T14:35:44.264Z,6.92
2018-09-03T14:38:13.110Z,8.70
2018-09-03T14:40:41.972Z,7.60
2018-09-03T14:43:10.890Z,7.72
2018-09-03T14:45:39.720Z,6.57
2018-09-03T14:48:08.581Z,6.83
2018-09-03T14:50:37.408Z,6.93
2018-09-03T14:53:06.207Z,6.67
2018-09-03T14:55:35.080Z,7.13
2018-09-03T14:58:03.924Z,6.83
2018-09-03T15:00:32.870Z,7.70
2018-09-03T15:03:01.700Z,7.63
2018-09-03T15:05:30.784Z,6.93
2018-09-03T15:07:59.623Z,6.70
2018-09-03T15:10:28.514Z,7.60
2018-09-03T15:12:57.313Z,7.10
2018-09-03T15:15:32.489Z,7.77
2018-09-03T15:18:01.333Z,7.60
2018-09-03T15:20:30.179Z,7.70
2018-09-03T15:22:59.147Z,8.37
2018-09-03T15:25:30.845Z,8.27
2018-09-03T15:27:59.696Z,7.17
2018-09-03T15:30:28.681Z,8.13
2018-09-03T15:32:57.512Z,7.30
2018-09-03T15:35:26.429Z,7.10
2018-09-03T15:37:55.264Z,6.80
2018-09-03T15:40:24.180Z,6.87
2018-09-03T15:42:53.194Z,6.47
2018-09-03T15:45:22.007Z,6.20
2018-09-03T15:47:50.897Z,6.87
2018-09-03T15:53:17.352Z,7.90
2018-09-03T15:55:46.259Z,6.80
2018-09-03T15:58:15.126Z,7.20
2018-09-03T16:00:44.026Z,7.20
2018-09-03T16:03:12.905Z,8.13
2018-09-03T16:05:41.716Z,7.20
2018-09-03T16:08:10.558Z,7.50
2018-09-03T16:10:39.356Z,8.33
2018-09-03T16:13:08.168Z,7.20
2018-09-03T16:15:37.050Z,8.03
2018-09-03T16:18:07.313Z,8.83
2018-09-03T16:20:36.193Z,8.00
2018-09-03T16:23:05.018Z,7.53
2018-09-03T16:25:33.859Z,7.50
2018-09-03T16:28:02.984Z,7.60
2018-09-03T16:30:31.963Z,6.97
2018-09-03T16:33:00.811Z,7.67
2018-09-03T16:35:29.621Z,7.90
2018-09-03T16:37:58.476Z,7.57
2018-09-03T16:40:27.327Z,8.10
2018-09-03T16:42:56.213Z,7.50
2018-09-03T16:45:25.063Z,8.20
2018-09-03T16:47:53.890Z,7.77
2018-09-03T16:50:22.739Z,8.40
2018-09-03T16:52:51.641Z,9.50
2018-09-03T16:55:20.732Z,9.37
2018-09-03T16:57:50.312Z,9.30
2018-09-03T17:00:19.122Z,9.80
2018-09-03T17:02:48.021Z,10.17
2018-09-03T17:05:19.713Z,10.93
2018-09-03T17:10:23.056Z,9.57
2018-09-03T17:12:53.520Z,9.50
2018-09-03T17:15:22.359Z,10.50
2018-09-03T17:17:51.261Z,10.97
2018-09-03T17:20:20.098Z,9.43
2018-09-03T17:22:48.932Z,10.83
2018-09-03T17:25:17.780Z,10.10
2018-09-03T17:27:46.705Z,10.90
2018-09-03T17:30:15.589Z,10.93
2018-09-03T17:32:46.395Z,10.63
2018-09-03T17:35:15.297Z,10.37
2018-09-03T17:37:44.163Z,9.90
2018-09-03T17:40:13.036Z,11.27
2018-09-03T17:42:41.926Z,10.97
2018-09-03T17:45:10.816Z,10.53
2018-09-03T17:47:40.287Z,10.50
2018-09-03T17:50:09.549Z,10.33
2018-09-03T17:52:38.444Z,10.33
2018-09-03T17:55:08.785Z,12.03
2018-09-03T17:57:37.635Z,11.07
2018-09-03T18:00:06.641Z,12.67
2018-09-03T18:02:35.454Z,11.47
2018-09-03T18:05:04.299Z,8.67
2018-09-03T18:07:33.155Z,8.77
2018-09-03T18:10:02.005Z,9.50
2018-09-03T18:12:30.877Z,10.20
2018-09-03T18:14:59.736Z,8.83
2018-09-03T18:17:28.597Z,8.40
2018-09-03T18:19:57.488Z,8.27
2018-09-03T18:22:26.335Z,7.40
2018-09-03T18:24:55.214Z,8.40
2018-09-03T18:27:24.035Z,8.20
2018-09-03T18:29:52.907Z,7.63
2018-09-03T18:32:21.761Z,9.40
2018-09-03T18:34:50.586Z,7.67
2018-09-03T18:37:19.476Z,8.40
2018-09-03T18:39:48.570Z,7.60
2018-09-03T18:42:17.439Z,8.60
2018-09-03T18:44:46.276Z,7.67
2018-09-03T18:47:15.251Z,7.67
2018-09-03T18:49:44.046Z,7.47
2018-09-03T18:52:12.899Z,8.20
2018-09-03T18:54:41.739Z,8.23
2018-09-03T18:57:10.673Z,8.00
2018-09-03T18:59:39.486Z,9.50
2018-09-03T19:02:08.332Z,8.90
2018-09-03T19:04:37.191Z,9.20
2018-09-03T19:07:06.039Z,8.43
2018-09-03T19:09:34.913Z,8.30
2018-09-03T19:12:03.731Z,8.00
2018-09-03T19:14:32.630Z,8.27
2018-09-03T19:17:01.445Z,7.27
2018-09-03T19:19:30.255Z,11.00
2018-09-03T19:21:59.097Z,9.10
2018-09-03T19:24:27.939Z,8.63
2018-09-03T19:26:56.743Z,8.93
2018-09-03T19:29:25.581Z,8.67
2018-09-03T19:31:54.397Z,8.40
2018-09-03T19:34:23.201Z,8.33
2018-09-03T19:36:52.153Z,8.80
2018-09-03T19:39:21.110Z,8.60
2018-09-03T19:41:50.020Z,8.30
2018-09-03T19:44:20.298Z,8.57
2018-09-03T19:46:49.285Z,8.83
2018-09-03T19:49:18.132Z,9.23
2018-09-03T19:51:46.979Z,8.17
2018-09-03T19:54:15.812Z,8.93
2018-09-03T19:56:44.683Z,8.27
2018-09-03T19:59:13.636Z,9.23
2018-09-03T20:01:42.561Z,8.33
2018-09-03T20:04:11.436Z,8.53
2018-09-03T20:06:40.296Z,9.30
2018-09-03T20:09:09.321Z,8.90
2018-09-03T20:11:38.569Z,10.53
2018-09-03T20:14:07.781Z,9.20
2018-09-03T20:16:36.951Z,8.50
2018-09-03T20:19:05.948Z,8.50
2018-09-03T20:21:34.822Z,8.87
2018-09-03T20:24:03.638Z,10.67
2018-09-03T20:26:32.479Z,10.07
2018-09-03T20:29:01.317Z,8.70
2018-09-03T20:31:30.151Z,8.93
2018-09-03T20:33:59.025Z,9.07
2018-09-03T20:36:27.936Z,8.97
2018-09-03T20:38:56.739Z,9.70
2018-09-03T20:41:25.607Z,10.10
2018-09-03T20:43:54.436Z,8.70
2018-09-03T20:46:23.371Z,8.93
2018-09-03T20:48:52.152Z,9.00
2018-09-03T20:51:20.992Z,9.80
2018-09-03T20:53:49.858Z,9.83
2018-09-03T20:56:18.759Z,9.27
2018-09-03T20:58:47.608Z,9.00
2018-09-03T21:01:16.463Z,9.63
2018-09-03T21:03:45.293Z,11.13
2018-09-03T21:06:14.137Z,10.93
2018-09-03T21:08:42.961Z,9.60
2018-09-03T21:11:11.815Z,12.40
2018-09-03T21:13:40.623Z,13.10
2018-09-03T21:16:09.492Z,9.83
2018-09-03T21:18:38.526Z,9.87
2018-09-03T21:21:07.385Z,10.20
2018-09-03T21:23:36.194Z,10.20
2018-09-03T21:26:05.136Z,9.77
2018-09-03T21:28:34.008Z,9.30
2018-09-03T21:31:02.872Z,8.60
2018-09-03T21:33:31.747Z,9.57
2018-09-03T21:36:00.579Z,9.53
2018-09-03T21:38:29.476Z,10.17
2018-09-03T21:40:58.360Z,10.37
2018-09-03T21:43:27.291Z,9.20
2018-09-03T21:45:56.139Z,9.37
2018-09-03T21:48:25.025Z,10.40
2018-09-03T21:50:54.015Z,10.27
2018-09-03T21:53:22.886Z,9.70
2018-09-03T21:55:51.739Z,9.63
2018-09-03T21:58:20.603Z,9.03
2018-09-03T22:00:49.501Z,9.80
2018-09-03T22:03:18.347Z,9.43
2018-09-03T22:05:47.259Z,9.73
2018-09-03T22:08:16.074Z,10.03
2018-09-03T22:10:44.975Z,10.33
2018-09-03T22:13:13.819Z,8.40
2018-09-03T22:15:42.728Z,9.40
2018-09-03T22:18:11.915Z,9.83
2018-09-03T22:20:40.719Z,9.70
2018-09-03T22:23:09.596Z,8.97
2018-09-03T22:25:38.460Z,10.27
2018-09-03T22:28:07.299Z,9.70
2018-09-03T22:30:36.155Z,8.93
2018-09-03T22:33:04.955Z,9.70
2018-09-03T22:35:33.800Z,9.90
2018-09-03T22:38:02.602Z,9.63
2018-09-03T22:40:31.429Z,9.33
2018-09-03T22:43:00.294Z,9.97
2018-09-03T22:45:29.143Z,10.43
2018-09-03T22:47:58.004Z,10.27
2018-09-03T22:50:26.859Z,9.37
2018-09-03T22:52:55.655Z,9.10
2018-09-03T22:55:24.463Z,9.70
2018-09-03T22:57:53.377Z,10.63
2018-09-03T23:00:22.223Z,8.80
2018-09-03T23:02:51.067Z,9.53
2018-09-03T23:05:19.895Z,9.13
2018-09-03T23:07:48.699Z,8.93
2018-09-03T23:10:17.514Z,8.10
2018-09-03T23:12:46.345Z,8.30
2018-09-03T23:15:15.233Z,9.07
2018-09-03T23:17:44.075Z,8.90
2018-09-03T23:20:12.920Z,8.73
2018-09-03T23:22:41.775Z,7.80
2018-09-03T23:25:10.629Z,8.27
2018-09-03T23:27:39.492Z,8.67
2018-09-03T23:30:08.314Z,8.23
2018-09-03T23:32:37.166Z,8.57
2018-09-03T23:35:06.182Z,9.70
2018-09-03T23:37:35.070Z,9.63
2018-09-03T23:40:03.923Z,9.10
2018-09-03T23:42:32.756Z,8.57
2018-09-03T23:45:01.632Z,9.33
2018-09-03T23:47:30.489Z,9.20
2018-09-03T23:49:59.352Z,8.23
2018-09-03T23:52:28.162Z,9.40
2018-09-03T23:54:56.997Z,8.83
2018-09-03T23:57:25.851Z,8.60
2018-09-03T23:59:54.676Z,7.80
